Time;durP1;ratioP1;P1;durP2;ratioP2;P2;SDS_P1;SDS_P2;PMS_P1;PMS_P2;Temp;Humidity;BMP_temperature;BMP_pressure;BME280_temperature;BME280_humidity;BME280_pressure;Samples;Min_cycle;Max_cycle;Signal;HPM_P1;HPM_P2
2022/04/20 00:01:07;;;;;;;8.07;3.90;;;8.00;91.60;;;;;;5012968;28;20423;-72
2022/04/20 00:03:32;;;;;;;6.67;3.87;;;8.00;91.40;;;;;;5030595;28;20192;-74
2022/04/20 00:05:58;;;;;;;4.97;3.70;;;8.00;91.50;;;;;;5030589;28;20718;-72
2022/04/20 00:08:24;;;;;;;5.90;3.40;;;7.90;91.60;;;;;;5030361;28;20721;-72
2022/04/20 00:10:49;;;;;;;7.10;4.00;;;7.90;91.90;;;;;;5030334;28;20724;-72
2022/04/20 00:13:15;;;;;;;4.93;4.00;;;7.90;92.10;;;;;;5030588;28;20181;-71
2022/04/20 00:15:41;;;;;;;7.60;4.43;;;7.80;92.60;;;;;;5030317;28;20185;-71
2022/04/20 00:18:06;;;;;;;7.70;4.73;;;7.80;93.20;;;;;;5030556;28;20201;-71
2022/04/20 00:20:32;;;;;;;5.10;4.00;;;7.80;93.40;;;;;;5030289;28;20185;-71
2022/04/20 00:22:57;;;;;;;8.07;4.17;;;7.80;93.80;;;;;;5012205;28;20185;-72
2022/04/20 00:25:23;;;;;;;4.43;4.03;;;7.80;93.90;;;;;;5012199;28;20258;-72
2022/04/20 00:27:49;;;;;;;5.13;4.13;;;7.80;94.10;;;;;;5030020;28;20204;-72
2022/04/20 00:30:15;;;;;;;7.30;4.77;;;7.80;93.90;;;;;;5029796;28;20243;-72
2022/04/20 00:32:41;;;;;;;4.87;4.37;;;7.80;93.80;;;;;;5011791;28;20431;-71
2022/04/20 00:35:07;;;;;;;6.57;4.53;;;7.80;94.00;;;;;;5029951;28;20182;-72
2022/04/20 00:37:34;;;;;;;4.00;3.70;;;7.80;93.70;;;;;;5029682;28;20461;-72
2022/04/20 00:40:01;;;;;;;4.80;3.90;;;7.90;93.80;;;;;;5029849;28;20780;-72
2022/04/20 00:42:28;;;;;;;8.90;4.60;;;7.80;93.70;;;;;;4995874;28;20427;-72
2022/04/20 00:44:54;;;;;;;4.13;3.73;;;7.80;93.10;;;;;;5011680;28;20764;-72
2022/04/20 00:47:22;;;;;;;4.03;3.63;;;7.70;93.20;;;;;;5029535;28;20443;-72
2022/04/20 00:49:47;;;;;;;3.80;3.50;;;7.70;93.20;;;;;;5029702;28;20188;-72
2022/04/20 00:52:13;;;;;;;6.33;4.13;;;7.70;93.20;;;;;;5029500;28;20481;-72
2022/04/20 00:54:39;;;;;;;6.13;4.23;;;7.70;93.20;;;;;;5011904;28;20187;-72
2022/04/20 00:57:06;;;;;;;5.00;4.10;;;7.60;93.40;;;;;;5029449;28;20842;-72
2022/04/20 00:59:34;;;;;;;5.10;4.47;;;7.60;93.30;;;;;;5029367;28;20444;-72
2022/04/20 01:02:01;;;;;;;3.50;3.20;;;7.70;93.40;;;;;;5029492;28;20534;-71
2022/04/20 01:04:27;;;;;;;8.93;4.27;;;7.70;93.30;;;;;;5029231;28;20434;-72
2022/04/20 01:06:53;;;;;;;5.50;4.10;;;7.60;93.20;;;;;;5029182;28;20474;-72
2022/04/20 01:09:19;;;;;;;6.47;3.60;;;7.60;93.20;;;;;;5011449;28;20462;-72
2022/04/20 01:11:45;;;;;;;5.87;3.17;;;7.60;93.90;;;;;;5011502;28;20219;-72
2022/04/20 01:14:11;;;;;;;7.13;4.47;;;7.50;94.00;;;;;;5029317;28;20713;-72
2022/04/20 01:16:37;;;;;;;5.50;4.50;;;7.50;93.80;;;;;;5029165;28;20539;-72
2022/04/20 01:19:03;;;;;;;4.10;3.70;;;7.50;93.90;;;;;;5029183;28;20427;-72
2022/04/20 01:21:29;;;;;;;4.57;3.90;;;7.50;94.10;;;;;;5029199;28;20179;-72
2022/04/20 01:23:55;;;;;;;4.03;3.47;;;7.50;92.70;;;;;;5030288;28;20951;-72
2022/04/20 01:26:20;;;;;;;4.70;4.13;;;7.50;92.70;;;;;;5014345;28;20431;-73
2022/04/20 01:28:47;;;;;;;3.50;3.20;;;7.50;93.00;;;;;;5014072;28;20427;-72
2022/04/20 01:31:15;;;;;;;3.80;3.40;;;7.40;92.60;;;;;;5031824;28;20250;-72
2022/04/20 01:33:41;;;;;;;4.13;3.57;;;7.40;92.90;;;;;;5030830;28;20418;-72
2022/04/20 01:36:07;;;;;;;8.63;4.20;;;7.30;92.30;;;;;;5032447;28;21056;-72
2022/04/20 01:38:33;;;;;;;6.80;3.77;;;7.20;92.20;;;;;;5014593;28;20518;-72
2022/04/20 01:40:58;;;;;;;4.47;3.90;;;7.20;92.10;;;;;;5030389;28;20183;-71
2022/04/20 01:43:24;;;;;;;6.13;4.07;;;7.30;92.40;;;;;;5029096;28;20567;-71
2022/04/20 01:45:50;;;;;;;3.50;3.20;;;7.20;92.10;;;;;;5029179;28;20184;-71
2022/04/20 01:48:16;;;;;;;3.83;3.23;;;7.20;92.20;;;;;;5028465;28;20534;-71
2022/04/20 01:53:26;;;;;;;5.33;3.97;;;7.20;91.90;;;;;;5028939;28;20191;-71
2022/04/20 01:55:51;;;;;;;3.87;2.80;;;7.20;92.10;;;;;;5028873;28;20423;-71
2022/04/20 01:58:17;;;;;;;3.80;3.50;;;7.10;92.20;;;;;;5010820;28;20439;-71
2022/04/20 02:00:43;;;;;;;3.93;3.30;;;7.10;92.30;;;;;;5028643;28;20271;-71
2022/04/20 02:03:08;;;;;;;4.23;3.10;;;7.00;92.20;;;;;;5010834;28;20275;-72
2022/04/20 02:05:34;;;;;;;3.90;3.60;;;7.00;92.30;;;;;;5010722;28;20307;-71
2022/04/20 02:07:59;;;;;;;3.03;2.67;;;6.90;92.20;;;;;;5028452;28;20197;-71
2022/04/20 02:10:25;;;;;;;3.50;3.30;;;6.80;92.10;;;;;;5028532;28;20705;-71
2022/04/20 02:12:51;;;;;;;3.33;3.13;;;6.80;92.90;;;;;;5028352;28;20187;-71
2022/04/20 02:15:16;;;;;;;6.43;3.30;;;6.70;93.20;;;;;;5010742;28;20228;-72
2022/04/20 02:17:42;;;;;;;3.37;3.00;;;6.60;93.30;;;;;;5028367;28;20283;-72
2022/04/20 02:20:09;;;;;;;4.67;3.37;;;6.60;91.80;;;;;;5010711;28;20260;-71
2022/04/20 02:22:34;;;;;;;4.10;2.90;;;6.70;91.60;;;;;;5028335;28;20976;-71
2022/04/20 02:25:00;;;;;;;4.27;2.90;;;6.70;91.50;;;;;;5028278;28;20520;-71
2022/04/20 02:27:26;;;;;;;5.70;3.00;;;6.70;90.30;;;;;;5010702;28;20263;-71
2022/04/20 02:29:52;;;;;;;3.10;2.77;;;6.70;90.00;;;;;;5010393;28;20217;-71
2022/04/20 02:32:18;;;;;;;3.20;2.87;;;6.70;89.10;;;;;;5028640;28;20546;-72
2022/04/20 02:34:43;;;;;;;2.90;2.70;;;6.70;88.90;;;;;;5029427;28;20212;-72
2022/04/20 02:37:09;;;;;;;6.73;2.93;;;6.70;90.30;;;;;;5028373;28;20689;-72
2022/04/20 02:39:36;;;;;;;2.63;2.43;;;6.60;90.10;;;;;;5028366;28;20189;-72
2022/04/20 02:42:03;;;;;;;3.20;2.80;;;6.60;90.20;;;;;;5028219;28;20176;-72
2022/04/20 02:44:29;;;;;;;3.57;3.27;;;6.60;90.70;;;;;;5028273;28;20432;-72
2022/04/20 02:46:55;;;;;;;2.27;2.07;;;6.60;91.10;;;;;;5028071;28;20447;-71
2022/04/20 02:49:21;;;;;;;2.73;2.13;;;6.40;91.10;;;;;;5028582;28;20173;-72
2022/04/20 02:51:46;;;;;;;3.23;2.73;;;6.40;90.50;;;;;;5029070;28;21085;-71
2022/04/20 02:54:12;;;;;;;5.63;2.70;;;6.40;91.40;;;;;;5029075;28;20412;-70
2022/04/20 02:56:38;;;;;;;4.03;3.30;;;6.40;91.20;;;;;;5011138;28;20201;-71
2022/04/20 02:59:04;;;;;;;3.40;2.47;;;6.20;91.00;;;;;;5029009;28;20184;-71
2022/04/20 03:01:30;;;;;;;4.40;2.80;;;6.30;90.70;;;;;;5029880;28;20217;-71
2022/04/20 03:03:58;;;;;;;4.73;2.30;;;6.20;91.50;;;;;;5032118;28;20423;-71
2022/04/20 03:06:23;;;;;;;4.30;2.67;;;6.10;91.30;;;;;;5032007;28;20535;-70
2022/04/20 03:08:49;;;;;;;3.77;2.60;;;6.20;90.60;;;;;;5032433;28;20522;-71
2022/04/20 03:11:15;;;;;;;3.03;2.73;;;6.40;90.20;;;;;;5032036;28;20215;-71
2022/04/20 03:13:40;;;;;;;3.17;2.77;;;6.40;90.20;;;;;;5032050;28;20184;-70
2022/04/20 03:16:06;;;;;;;3.33;2.50;;;6.40;88.30;;;;;;5031799;28;20203;-70
2022/04/20 03:18:32;;;;;;;4.57;2.73;;;6.50;89.70;;;;;;5031966;28;20178;-69
2022/04/20 03:21:00;;;;;;;2.57;2.37;;;6.40;89.80;;;;;;4997762;28;20741;-70
2022/04/20 03:23:26;;;;;;;2.77;2.50;;;6.40;90.20;;;;;;5014085;28;20439;-70
2022/04/20 03:25:51;;;;;;;3.10;2.90;;;6.40;89.70;;;;;;4997526;28;20439;-71
2022/04/20 03:28:17;;;;;;;2.60;2.40;;;6.40;90.70;;;;;;5031763;28;20203;-71
2022/04/20 03:30:43;;;;;;;2.67;2.17;;;6.20;89.90;;;;;;5014206;28;20604;-71
2022/04/20 03:33:09;;;;;;;3.20;3.00;;;6.10;90.50;;;;;;5032235;28;20459;-70
2022/04/20 03:35:36;;;;;;;2.63;2.43;;;5.90;90.80;;;;;;5031848;28;20176;-70
2022/04/20 03:38:02;;;;;;;3.90;2.37;;;5.90;92.00;;;;;;5031593;28;20955;-70
2022/04/20 03:40:28;;;;;;;3.67;2.77;;;5.80;92.30;;;;;;5031797;28;20422;-70
2022/04/20 03:42:53;;;;;;;4.40;2.30;;;5.60;92.50;;;;;;5031984;28;20208;-70
2022/04/20 03:45:19;;;;;;;4.97;2.80;;;5.70;93.20;;;;;;5031755;28;20238;-70
2022/04/20 03:47:44;;;;;;;3.30;2.97;;;5.50;93.60;;;;;;5013833;28;20565;-70
2022/04/20 03:50:10;;;;;;;2.63;2.43;;;5.40;93.90;;;;;;4997124;28;20188;-70
2022/04/20 03:52:38;;;;;;;2.83;2.53;;;5.40;94.30;;;;;;5031887;28;20213;-70
2022/04/20 03:55:05;;;;;;;2.90;2.40;;;5.30;94.30;;;;;;5014018;28;20195;-70
2022/04/20 03:57:30;;;;;;;3.33;2.73;;;5.20;94.30;;;;;;5031691;28;20516;-70
2022/04/20 03:59:56;;;;;;;3.73;2.70;;;5.10;94.80;;;;;;5031770;28;20503;-70
2022/04/20 04:02:22;;;;;;;4.80;2.97;;;5.10;94.40;;;;;;5031736;28;20188;-70
2022/04/20 04:04:48;;;;;;;5.33;2.97;;;5.00;94.50;;;;;;5013899;28;20191;-70
2022/04/20 04:07:13;;;;;;;3.30;2.63;;;5.00;94.60;;;;;;5031525;28;20199;-69
2022/04/20 04:09:39;;;;;;;3.47;3.17;;;4.90;94.70;;;;;;5031525;28;20430;-70
2022/04/20 04:12:06;;;;;;;6.73;2.83;;;4.90;95.10;;;;;;5030736;28;20242;-71
2022/04/20 04:14:37;;;;;;;2.90;2.70;;;4.80;95.20;;;;;;5031346;28;20188;-71
2022/04/20 04:17:03;;;;;;;2.90;2.70;;;4.80;95.50;;;;;;5031201;28;20488;-71
2022/04/20 04:19:29;;;;;;;3.40;3.10;;;4.70;96.50;;;;;;5031339;28;20423;-71
2022/04/20 04:21:56;;;;;;;3.30;2.70;;;4.60;96.30;;;;;;5013341;28;20849;-72
2022/04/20 04:24:37;;;;;;;4.03;2.87;;;4.50;96.80;;;;;;5031201;28;20952;-71
2022/04/20 04:27:08;;;;;;;2.60;2.40;;;4.40;97.40;;;;;;5031162;28;21034;-72
2022/04/20 04:29:34;;;;;;;4.63;2.43;;;4.30;97.40;;;;;;5030863;28;20434;-71
2022/04/20 04:32:00;;;;;;;2.83;2.63;;;4.10;97.50;;;;;;5012042;28;20552;-72
2022/04/20 04:34:27;;;;;;;2.97;2.43;;;4.10;97.50;;;;;;5029910;28;20407;-72
2022/04/20 04:36:54;;;;;;;2.70;2.50;;;4.00;98.10;;;;;;5029838;28;20474;-71
2022/04/20 04:39:23;;;;;;;2.88;2.60;;;3.90;97.50;;;;;;5029801;28;20422;-72
2022/04/20 04:41:50;;;;;;;3.30;2.27;;;3.90;97.90;;;;;;5029743;28;20183;-72
2022/04/20 04:44:17;;;;;;;5.40;2.73;;;3.90;98.10;;;;;;5029892;28;20462;-72
2022/04/20 04:49:27;;;;;;;3.90;3.20;;;4.00;98.70;;;;;;5030883;28;20418;-72
2022/04/20 04:51:54;;;;;;;3.93;3.23;;;4.10;99.40;;;;;;5030329;28;20473;-72
2022/04/20 04:54:20;;;;;;;2.93;2.63;;;4.10;99.50;;;;;;5030576;28;20418;-72
2022/04/20 04:56:45;;;;;;;2.47;2.27;;;4.00;99.90;;;;;;5030381;28;20436;-71
2022/04/20 04:59:11;;;;;;;5.00;2.53;;;4.00;99.60;;;;;;5030406;28;20193;-72
2022/04/20 05:01:36;;;;;;;3.60;2.50;;;4.00;99.90;;;;;;5030457;28;20188;-72
2022/04/20 05:04:02;;;;;;;4.33;3.00;;;4.10;99.80;;;;;;5030350;28;20642;-72
2022/04/20 05:06:28;;;;;;;2.50;2.27;;;4.00;99.90;;;;;;5030207;28;20216;-72
2022/04/20 05:08:53;;;;;;;3.30;2.07;;;3.90;99.50;;;;;;5030083;28;20394;-71
2022/04/20 05:11:19;;;;;;;3.00;2.80;;;3.90;99.80;;;;;;5011953;28;20222;-71
2022/04/20 05:13:44;;;;;;;4.10;3.70;;;4.00;99.90;;;;;;5029762;28;20189;-71
2022/04/20 05:16:11;;;;;;;8.43;4.77;;;4.10;99.90;;;;;;5029645;28;20179;-72
2022/04/20 05:18:36;;;;;;;6.07;3.70;;;4.00;99.90;;;;;;5029661;28;20246;-72
2022/04/20 05:21:02;;;;;;;4.10;2.80;;;4.00;99.90;;;;;;5029563;28;20419;-72
2022/04/20 05:23:28;;;;;;;3.40;3.10;;;4.00;99.90;;;;;;5029014;28;20193;-72
2022/04/20 05:25:53;;;;;;;2.43;2.20;;;4.00;99.90;;;;;;5029661;28;20200;-72
2022/04/20 05:28:19;;;;;;;6.30;3.00;;;4.10;99.90;;;;;;5011787;28;21079;-72
2022/04/20 05:30:44;;;;;;;3.00;2.33;;;4.40;99.90;;;;;;5029366;28;20208;-72
2022/04/20 05:33:11;;;;;;;4.27;2.53;;;4.70;99.30;;;;;;5011654;28;20187;-72
2022/04/20 05:35:37;;;;;;;3.27;2.87;;;5.00;98.40;;;;;;5029295;28;20583;-72
2022/04/20 05:43:32;;;;;;;7.57;2.53;;;5.30;97.00;;;;;;5029048;28;20433;-72
2022/04/20 05:45:57;;;;;;;3.73;3.27;;;5.60;97.40;;;;;;5010923;28;20423;-71
2022/04/20 05:48:23;;;;;;;2.80;2.50;;;5.80;96.90;;;;;;5028802;28;20211;-71
2022/04/20 05:50:48;;;;;;;3.20;2.90;;;6.10;96.50;;;;;;5028764;28;20311;-72
2022/04/20 05:53:14;;;;;;;6.07;2.53;;;6.40;96.70;;;;;;5030230;28;20231;-72
2022/04/20 05:55:40;;;;;;;3.53;2.93;;;6.60;95.30;;;;;;4995434;28;20192;-72
2022/04/20 05:58:06;;;;;;;3.43;2.90;;;6.70;93.60;;;;;;5012592;28;20299;-72
2022/04/20 06:00:32;;;;;;;3.87;2.90;;;6.90;92.50;;;;;;5012631;28;20624;-72
2022/04/20 06:02:58;;;;;;;6.47;3.00;;;7.20;92.60;;;;;;5036355;28;20447;-72
2022/04/20 06:05:24;;;;;;;18.73;4.03;;;7.50;91.50;;;;;;5037603;28;20180;-72
2022/04/20 06:07:50;;;;;;;7.03;3.77;;;7.90;91.40;;;;;;5037877;28;20810;-71
2022/04/20 06:10:15;;;;;;;4.70;4.20;;;8.10;90.80;;;;;;5018497;28;20526;-72
2022/04/20 06:12:42;;;;;;;4.60;4.20;;;8.30;90.30;;;;;;5037095;28;20798;-72
2022/04/20 06:15:08;;;;;;;5.10;3.80;;;8.50;91.10;;;;;;5016106;28;20192;-72
2022/04/20 06:17:34;;;;;;;8.17;3.53;;;8.70;90.40;;;;;;5028543;28;20896;-71
2022/04/20 06:20:00;;;;;;;23.57;3.80;;;8.90;87.50;;;;;;5028034;28;20448;-71
2022/04/20 06:22:27;;;;;;;6.33;3.33;;;9.10;85.00;;;;;;5027786;28;20427;-71
2022/04/20 06:24:52;;;;;;;5.47;3.50;;;9.20;84.50;;;;;;5027609;28;20522;-72
2022/04/20 06:27:18;;;;;;;4.70;3.33;;;9.30;83.70;;;;;;5009996;28;20451;-71
2022/04/20 06:29:44;;;;;;;15.07;3.70;;;9.40;83.70;;;;;;5028019;28;20191;-72
2022/04/20 06:32:10;;;;;;;6.17;3.10;;;9.70;84.90;;;;;;5027656;28;20681;-71
2022/04/20 06:34:36;;;;;;;3.00;2.80;;;9.80;83.20;;;;;;5009916;28;20440;-72
2022/04/20 06:37:01;;;;;;;3.00;2.70;;;10.00;78.30;;;;;;5013994;28;20204;-72
2022/04/20 06:39:28;;;;;;;6.63;3.20;;;10.00;78.60;;;;;;5031887;28;20180;-72
2022/04/20 06:41:53;;;;;;;4.27;3.00;;;10.20;77.80;;;;;;5031970;28;20189;-72
2022/04/20 06:44:19;;;;;;;6.83;3.13;;;10.10;78.20;;;;;;5031958;28;20896;-72
2022/04/20 06:46:45;;;;;;;4.57;3.40;;;10.40;76.70;;;;;;5031463;28;20212;-72
2022/04/20 06:49:11;;;;;;;8.10;3.60;;;10.70;77.20;;;;;;5031562;28;20600;-71
2022/04/20 06:59:50;;;;;;;4.40;3.07;;;10.60;78.80;;;;;;5031569;28;20424;-72
2022/04/20 07:02:16;;;;;;;4.90;3.60;;;10.90;78.90;;;;;;5031286;28;20419;-72
2022/04/20 07:04:42;;;;;;;3.67;3.10;;;11.20;75.70;;;;;;5031261;28;20458;-72
2022/04/20 07:07:08;;;;;;;3.43;3.03;;;11.30;75.40;;;;;;5031146;28;20485;-72
2022/04/20 07:09:34;;;;;;;4.47;3.23;;;11.00;74.50;;;;;;5013197;28;21089;-71
2022/04/20 07:12:00;;;;;;;5.40;3.40;;;11.00;78.20;;;;;;5013006;28;20468;-72
2022/04/20 07:14:25;;;;;;;6.50;3.23;;;11.10;76.60;;;;;;5013272;28;20424;-72
2022/04/20 07:16:51;;;;;;;8.63;3.70;;;11.10;74.00;;;;;;5031021;28;20263;-71
2022/04/20 07:19:17;;;;;;;4.90;2.73;;;11.40;75.90;;;;;;5031005;28;20722;-72
2022/04/20 07:21:42;;;;;;;4.23;3.43;;;11.60;73.70;;;;;;5030988;28;20230;-72
2022/04/20 07:24:08;;;;;;;5.60;3.90;;;11.40;72.00;;;;;;5012794;28;20198;-72
2022/04/20 07:26:33;;;;;;;9.93;4.07;;;11.60;74.80;;;;;;5030902;28;20221;-72
2022/04/20 07:28:59;;;;;;;5.97;4.00;;;11.30;72.40;;;;;;5012974;28;20938;-72
2022/04/20 07:31:25;;;;;;;4.20;3.80;;;11.20;71.90;;;;;;5012868;28;20219;-72
2022/04/20 07:33:50;;;;;;;3.50;3.20;;;10.70;69.70;;;;;;5030777;28;20178;-73
2022/04/20 07:36:16;;;;;;;3.50;3.20;;;11.00;74.00;;;;;;5012783;28;20733;-72
2022/04/20 07:38:42;;;;;;;3.80;3.43;;;11.20;74.40;;;;;;5012751;28;20182;-72
2022/04/20 07:41:08;;;;;;;4.30;3.90;;;11.30;72.10;;;;;;5014252;28;20259;-72
2022/04/20 07:43:35;;;;;;;4.67;3.30;;;11.00;72.00;;;;;;5020757;28;20428;-73
2022/04/20 07:46:01;;;;;;;5.63;4.77;;;11.10;72.70;;;;;;5012275;28;20417;-73
2022/04/20 07:48:26;;;;;;;5.10;4.10;;;11.20;73.10;;;;;;5011570;28;20452;-73
2022/04/20 07:50:52;;;;;;;3.63;3.30;;;11.60;75.60;;;;;;4996214;28;20717;-72
2022/04/20 07:53:17;;;;;;;6.50;4.10;;;11.90;72.30;;;;;;5030391;28;20182;-72
2022/04/20 07:55:46;;;;;;;3.70;3.40;;;11.90;67.80;;;;;;5012644;28;20759;-73
2022/04/20 07:58:13;;;;;;;3.83;3.53;;;12.10;68.30;;;;;;4996143;28;20296;-72
2022/04/20 08:00:39;;;;;;;4.40;4.00;;;12.00;66.10;;;;;;5012149;28;20429;-73
2022/04/20 08:03:10;;;;;;;5.23;3.87;;;11.90;68.40;;;;;;5020859;28;20456;-73
2022/04/20 08:05:36;;;;;;;3.93;3.50;;;11.60;66.30;;;;;;5012766;28;20432;-72
2022/04/20 08:08:02;;;;;;;10.23;4.13;;;11.80;66.70;;;;;;5030074;28;20439;-72
2022/04/20 08:10:28;;;;;;;5.90;4.13;;;11.80;68.70;;;;;;5012540;28;20435;-72
2022/04/20 08:12:53;;;;;;;7.60;3.90;;;11.70;66.00;;;;;;5030098;28;20431;-71
2022/04/20 08:15:19;;;;;;;3.77;3.47;;;11.60;68.30;;;;;;5030433;28;20290;-72
2022/04/20 08:17:45;;;;;;;4.30;3.90;;;12.00;69.90;;;;;;5011763;28;20703;-73
2022/04/20 08:20:10;;;;;;;8.87;4.20;;;12.00;67.30;;;;;;5011900;28;20716;-73
2022/04/20 08:22:44;;;;;;;6.40;4.07;;;12.20;67.00;;;;;;5029920;28;20186;-73
2022/04/20 08:25:11;;;;;;;5.30;3.47;;;12.40;67.00;;;;;;5029435;28;20264;-73
2022/04/20 08:27:37;;;;;;;7.33;3.80;;;12.80;67.90;;;;;;5011346;28;20443;-74
2022/04/20 08:30:05;;;;;;;5.17;3.43;;;13.30;68.20;;;;;;5029517;28;20421;-73
2022/04/20 08:32:31;;;;;;;4.70;3.90;;;13.50;62.60;;;;;;5029201;28;20474;-73
2022/04/20 08:34:56;;;;;;;6.50;3.57;;;13.70;63.40;;;;;;5011417;28;20733;-73
2022/04/20 08:37:22;;;;;;;3.93;3.50;;;14.00;61.70;;;;;;5028884;28;20445;-73
2022/04/20 08:39:48;;;;;;;3.47;3.20;;;13.80;58.90;;;;;;5028955;28;20181;-73
2022/04/20 08:42:17;;;;;;;3.57;3.27;;;14.00;60.00;;;;;;5028973;28;20187;-73
2022/04/20 08:44:47;;;;;;;3.50;3.23;;;14.10;61.80;;;;;;5028911;28;20190;-73
2022/04/20 08:47:23;;;;;;;5.47;3.30;;;14.30;60.20;;;;;;5028727;28;20438;-73
2022/04/20 08:49:50;;;;;;;3.60;3.30;;;14.50;61.30;;;;;;5029172;28;20844;-73
2022/04/20 08:55:02;;;;;;;5.07;3.30;;;14.60;59.70;;;;;;5014335;28;20421;-73
2022/04/20 08:57:29;;;;;;;5.30;3.30;;;15.20;60.20;;;;;;5011366;28;20475;-73
2022/04/20 08:59:57;;;;;;;6.20;3.70;;;15.50;59.60;;;;;;5029166;28;20415;-73
2022/04/20 09:02:25;;;;;;;3.60;3.30;;;15.60;57.00;;;;;;5029278;28;20459;-72
2022/04/20 09:04:52;;;;;;;5.50;3.10;;;15.80;56.50;;;;;;5012059;28;20422;-73
2022/04/20 09:07:18;;;;;;;6.00;3.70;;;16.00;55.80;;;;;;5029261;28;20431;-73
2022/04/20 09:09:44;;;;;;;3.67;3.37;;;16.10;54.20;;;;;;5011822;28;20431;-73
2022/04/20 09:12:25;;;;;;;5.50;3.27;;;16.20;55.40;;;;;;5010989;28;20462;-73
2022/04/20 09:14:52;;;;;;;3.57;3.27;;;16.50;55.80;;;;;;5029351;28;20922;-73
2022/04/20 09:17:22;;;;;;;6.70;3.20;;;16.80;54.80;;;;;;5028939;28;20501;-74
2022/04/20 09:19:53;;;;;;;4.47;4.07;;;17.00;55.40;;;;;;5028790;28;20418;-74
2022/04/20 09:22:26;;;;;;;4.40;3.93;;;17.00;53.30;;;;;;5028788;28;20426;-73
2022/04/20 09:24:57;;;;;;;3.77;3.47;;;17.10;53.60;;;;;;5028373;28;20462;-74
2022/04/20 09:27:24;;;;;;;8.77;4.60;;;17.30;52.50;;;;;;5028372;28;20546;-72
2022/04/20 09:29:54;;;;;;;4.13;3.77;;;17.60;52.30;;;;;;5028889;28;20852;-73
2022/04/20 09:32:33;;;;;;;7.43;4.13;;;17.70;52.10;;;;;;5028335;28;20466;-73
2022/04/20 09:34:59;;;;;;;8.80;3.30;;;17.80;51.30;;;;;;5028301;28;20511;-74
2022/04/20 09:37:26;;;;;;;5.83;3.90;;;18.10;51.30;;;;;;5028085;28;20455;-73
2022/04/20 09:39:52;;;;;;;3.93;3.47;;;18.10;50.50;;;;;;5028217;28;20962;-73
2022/04/20 09:42:20;;;;;;;4.90;3.30;;;18.00;47.70;;;;;;5028031;28;20482;-73
2022/04/20 09:44:59;;;;;;;3.77;3.47;;;18.60;49.70;;;;;;5010366;28;21080;-73
2022/04/20 09:50:26;;;;;;;3.73;3.33;;;19.00;46.60;;;;;;5013141;28;20845;-74
2022/04/20 09:52:59;;;;;;;3.33;3.13;;;19.20;46.90;;;;;;5027674;28;20425;-74
2022/04/20 09:55:29;;;;;;;2.93;2.60;;;19.40;45.50;;;;;;5027672;28;20437;-74
2022/04/20 09:58:18;;;;;;;6.60;4.47;;;19.80;46.40;;;;;;5009622;28;20506;-74
2022/04/20 10:00:56;;;;;;;6.03;3.50;;;19.80;46.80;;;;;;5027436;28;20410;-74
2022/04/20 10:03:29;;;;;;;4.10;3.37;;;19.50;44.50;;;;;;5027479;28;20532;-74
2022/04/20 10:05:59;;;;;;;3.77;3.23;;;19.50;45.90;;;;;;5027420;28;20508;-74
2022/04/20 10:08:25;;;;;;;5.13;3.50;;;19.70;44.70;;;;;;5027286;28;20509;-74
2022/04/20 10:10:54;;;;;;;3.23;2.93;;;19.60;43.50;;;;;;5026753;28;20455;-74
2022/04/20 10:13:22;;;;;;;4.50;3.30;;;19.70;43.80;;;;;;5027574;28;20460;-74
2022/04/20 10:16:10;;;;;;;4.43;3.47;;;19.80;44.50;;;;;;5012818;28;20509;-74
2022/04/20 10:18:40;;;;;;;4.20;3.10;;;19.60;43.90;;;;;;5037417;28;20413;-73
2022/04/20 10:21:11;;;;;;;3.90;3.30;;;19.60;43.90;;;;;;5018933;28;20432;-73
2022/04/20 10:23:40;;;;;;;6.13;4.27;;;19.40;43.70;;;;;;5034850;28;20428;-73
2022/04/20 10:26:10;;;;;;;6.00;3.50;;;19.70;43.80;;;;;;5037450;28;20451;-74
2022/04/20 10:29:10;;;;;;;8.10;3.10;;;19.50;42.60;;;;;;5034100;28;20430;-73
2022/04/20 10:31:46;;;;;;;3.97;2.77;;;19.60;42.00;;;;;;5030333;28;20545;-74
2022/04/20 10:34:14;;;;;;;4.83;3.20;;;19.70;41.40;;;;;;5028261;28;21055;-74
2022/04/20 10:36:40;;;;;;;3.20;2.67;;;19.90;42.50;;;;;;5027244;28;20542;-74
2022/04/20 10:39:22;;;;;;;3.00;2.80;;;20.20;42.50;;;;;;5027099;28;20902;-74
2022/04/20 10:42:23;;;;;;;3.07;2.87;;;19.90;39.40;;;;;;5026947;28;20199;-74
2022/04/20 10:44:55;;;;;;;3.83;3.50;;;20.00;40.10;;;;;;4946212;29;20899;-74
2022/04/20 10:47:27;;;;;;;4.20;3.27;;;20.00;40.30;;;;;;5013024;28;20461;-74
2022/04/20 10:50:09;;;;;;;4.00;3.60;;;20.20;40.20;;;;;;5026771;28;20416;-74
2022/04/20 10:52:42;;;;;;;4.50;3.43;;;20.50;40.00;;;;;;5026835;28;20902;-74
2022/04/20 10:55:12;;;;;;;4.47;3.23;;;20.20;39.80;;;;;;5026631;28;20410;-74
2022/04/20 10:57:40;;;;;;;5.33;3.17;;;20.40;40.50;;;;;;5026785;28;20521;-74
2022/04/20 11:00:17;;;;;;;3.90;3.30;;;19.90;38.00;;;;;;5026465;28;20433;-74
2022/04/20 11:02:51;;;;;;;5.87;3.20;;;20.00;37.70;;;;;;5008585;28;20436;-74
2022/04/20 11:05:24;;;;;;;3.43;3.13;;;20.30;40.80;;;;;;5026724;28;20470;-74
2022/04/20 11:08:14;;;;;;;3.53;3.23;;;20.00;38.80;;;;;;5027047;28;20450;-74
2022/04/20 11:18:38;;;;;;;3.80;3.40;;;20.20;41.60;;;;;;5014563;28;20443;-74
2022/04/20 11:19:08;;;;;;;4.43;3.17;;;20.90;38.40;;;;;;5026175;28;20797;-74
2022/04/20 11:21:35;;;;;;;4.63;3.10;;;20.90;37.30;;;;;;5026615;28;20433;-73
2022/04/20 11:24:09;;;;;;;4.00;2.90;;;20.90;38.30;;;;;;5030151;28;20415;-73
2022/04/20 11:26:39;;;;;;;3.07;2.77;;;21.20;39.20;;;;;;5030420;28;20488;-73
2022/04/20 11:29:09;;;;;;;3.53;3.23;;;21.20;37.30;;;;;;5030160;28;20620;-73
2022/04/20 11:31:40;;;;;;;3.93;2.87;;;21.10;36.30;;;;;;5030198;28;20465;-73
2022/04/20 11:34:06;;;;;;;5.03;3.00;;;21.20;37.30;;;;;;5030488;28;20494;-73
2022/04/20 11:36:33;;;;;;;7.27;3.20;;;21.40;38.20;;;;;;5029838;28;20813;-73
2022/04/20 11:39:00;;;;;;;2.93;2.70;;;21.50;36.20;;;;;;5030613;28;20456;-74
2022/04/20 11:41:27;;;;;;;4.53;3.00;;;21.60;37.80;;;;;;5030571;28;20949;-73
2022/04/20 11:43:52;;;;;;;5.23;3.10;;;21.20;36.20;;;;;;5030279;28;20437;-72
2022/04/20 11:46:20;;;;;;;4.13;3.27;;;21.10;37.30;;;;;;5030160;28;21305;-73
2022/04/20 11:48:56;;;;;;;2.93;2.73;;;21.30;35.00;;;;;;5012434;28;20280;-73
2022/04/20 11:51:28;;;;;;;3.40;3.10;;;21.40;36.10;;;;;;5030271;28;20502;-73
2022/04/20 11:53:55;;;;;;;4.93;3.30;;;21.50;36.30;;;;;;5030366;28;20441;-73
2022/04/20 11:56:34;;;;;;;3.30;3.00;;;21.30;35.10;;;;;;5030267;28;20431;-73
2022/04/20 11:59:01;;;;;;;3.30;3.03;;;21.30;34.50;;;;;;5030540;28;20430;-73
2022/04/20 12:01:29;;;;;;;3.70;3.40;;;21.30;34.90;;;;;;5030131;28;20423;-73
2022/04/20 12:03:55;;;;;;;3.17;2.87;;;21.40;37.40;;;;;;5030069;28;20431;-73
2022/04/20 12:06:24;;;;;;;12.67;3.20;;;21.40;33.90;;;;;;5030088;28;21006;-73
2022/04/20 12:08:53;;;;;;;6.83;3.57;;;21.60;36.50;;;;;;5029862;28;20461;-73
2022/04/20 12:11:19;;;;;;;3.83;2.80;;;21.80;36.00;;;;;;5029299;28;20976;-73
2022/04/20 12:13:45;;;;;;;5.73;3.10;;;21.60;36.10;;;;;;5029647;28;20470;-74
2022/04/20 12:16:12;;;;;;;3.00;2.70;;;21.50;34.10;;;;;;5029951;28;20251;-73
2022/04/20 12:18:46;;;;;;;5.53;4.03;;;21.60;35.40;;;;;;5029807;28;20189;-73
2022/04/20 12:21:36;;;;;;;3.53;2.90;;;21.50;34.70;;;;;;5011683;28;20885;-74
2022/04/20 12:24:03;;;;;;;5.00;3.43;;;21.40;36.00;;;;;;5011525;28;20978;-73
2022/04/20 12:26:30;;;;;;;3.00;2.80;;;21.40;36.60;;;;;;5029762;28;20494;-73
2022/04/20 12:29:03;;;;;;;3.90;3.23;;;21.40;36.70;;;;;;5011925;28;20431;-74
2022/04/20 12:31:30;;;;;;;6.23;3.77;;;21.20;37.00;;;;;;5012347;28;20478;-72
2022/04/20 12:34:09;;;;;;;4.00;3.43;;;21.10;37.00;;;;;;5029333;28;20455;-73
2022/04/20 12:36:54;;;;;;;4.20;2.80;;;20.90;36.60;;;;;;5029583;28;20458;-73
2022/04/20 12:39:26;;;;;;;3.37;3.07;;;20.90;37.70;;;;;;5029674;28;21101;-73
2022/04/20 12:41:57;;;;;;;3.20;2.90;;;21.00;37.80;;;;;;5029322;28;20522;-73
2022/04/20 12:44:51;;;;;;;6.17;3.30;;;21.00;37.00;;;;;;5029382;28;20430;-73
2022/04/20 12:47:17;;;;;;;2.83;2.63;;;21.10;36.70;;;;;;5029145;28;20440;-73
2022/04/20 12:49:52;;;;;;;3.27;3.07;;;21.00;36.20;;;;;;5029327;28;20419;-73
2022/04/20 12:52:19;;;;;;;3.37;2.87;;;21.10;35.40;;;;;;5028835;28;20219;-73
2022/04/20 12:55:09;;;;;;;6.20;2.53;;;21.10;34.80;;;;;;5029149;28;20416;-72
2022/04/20 13:03:09;;;;;;;3.30;3.00;;;20.90;36.30;;;;;;5029355;28;20421;-74
2022/04/20 13:05:37;;;;;;;2.47;2.27;;;21.10;35.50;;;;;;5029241;28;20523;-73
2022/04/20 13:08:03;;;;;;;3.57;2.60;;;21.30;33.30;;;;;;5011525;28;20526;-73
2022/04/20 13:10:30;;;;;;;4.13;2.90;;;21.30;32.20;;;;;;5029044;28;20439;-73
2022/04/20 13:12:56;;;;;;;3.97;3.10;;;21.20;32.60;;;;;;5029043;28;20471;-73
2022/04/20 13:15:24;;;;;;;4.67;2.83;;;21.20;33.10;;;;;;5029017;28;20473;-73
2022/04/20 13:17:51;;;;;;;48.40;3.77;;;21.10;31.40;;;;;;5028837;28;20446;-73
2022/04/20 13:20:17;;;;;;;3.43;3.13;;;20.80;30.80;;;;;;5010647;28;20435;-73
2022/04/20 13:22:44;;;;;;;3.67;2.80;;;20.80;34.70;;;;;;5028215;28;20430;-73
2022/04/20 13:27:54;;;;;;;2.80;2.60;;;20.90;36.60;;;;;;5028287;28;20449;-73
2022/04/20 13:30:24;;;;;;;3.63;3.03;;;21.00;35.50;;;;;;5010447;28;20995;-73
2022/04/20 13:32:56;;;;;;;3.40;3.20;;;20.90;35.00;;;;;;5027963;28;20473;-73
2022/04/20 13:35:23;;;;;;;2.83;2.63;;;21.00;36.50;;;;;;5028072;28;20531;-73